createdAt,value
2022-08-24T00:00:22.340Z,48.41
2022-08-24T00:01:43.807Z,46.14
2022-08-24T00:03:05.066Z,47.08
2022-08-24T00:04:26.711Z,46.72
2022-08-24T00:07:00.349Z,49.77
2022-08-24T00:08:21.950Z,49.76
2022-08-24T00:09:43.372Z,38.49
2022-08-24T00:11:07.302Z,38.58
2022-08-24T00:12:28.794Z,41.88
2022-08-24T00:13:50.135Z,44.11
2022-08-24T00:15:12.703Z,42.25
2022-08-24T00:16:34.849Z,47.99
2022-08-24T00:17:56.099Z,42.92
2022-08-24T00:19:17.722Z,38.89
2022-08-24T00:20:44.575Z,41.24
2022-08-24T00:22:02.587Z,40.97
2022-08-24T00:23:24.078Z,50.22
2022-08-24T00:24:45.613Z,42.67
2022-08-24T00:26:07.872Z,42.67
2022-08-24T00:27:29.304Z,44.55
2022-08-24T00:28:50.604Z,38.47
2022-08-24T00:30:16.313Z,41.91
2022-08-24T00:31:37.511Z,38.09
2022-08-24T00:32:59.040Z,45.34
2022-08-24T00:34:20.207Z,46.17
2022-08-24T00:35:41.323Z,44.14
2022-08-24T00:37:03.044Z,44.86
2022-08-24T00:38:27.344Z,45.00
2022-08-24T00:39:48.612Z,43.24
2022-08-24T00:41:10.200Z,43.13
2022-08-24T00:42:31.828Z,42.22
2022-08-24T00:43:58.088Z,34.62
2022-08-24T00:45:19.830Z,59.41
2022-08-24T00:46:54.391Z,45.77
2022-08-24T00:48:19.318Z,38.58
2022-08-24T00:51:05.722Z,33.11
2022-08-24T00:52:30.732Z,41.59
2022-08-24T00:53:55.658Z,41.89
2022-08-24T00:55:23.608Z,39.59
2022-08-24T00:56:51.628Z,34.71
2022-08-24T00:58:17.803Z,40.63
2022-08-24T00:59:42.602Z,36.02
2022-08-24T01:01:06.504Z,31.47
2022-08-24T01:02:30.927Z,29.79
2022-08-24T01:03:56.623Z,30.14
2022-08-24T01:05:16.899Z,26.66
2022-08-24T01:06:39.067Z,25.24
2022-08-24T01:08:01.465Z,33.89
2022-08-24T01:09:24.403Z,21.87
2022-08-24T01:10:49.437Z,26.01
2022-08-24T01:12:11.031Z,26.24
2022-08-24T01:13:32.459Z,31.23
2022-08-24T01:14:54.121Z,28.34
2022-08-24T01:16:17.110Z,25.85
2022-08-24T01:17:40.576Z,23.57
2022-08-24T01:19:02.861Z,26.11
2022-08-24T01:20:25.818Z,28.17
2022-08-24T01:22:00.555Z,20.96
2022-08-24T01:23:39.413Z,30.14
2022-08-24T01:25:00.566Z,26.54
2022-08-24T01:40:39.424Z,32.48
2022-08-24T01:43:57.032Z,27.93
2022-08-24T03:01:33.360Z,43.33
2022-08-24T03:15:52.560Z,34.57
2022-08-24T03:17:13.794Z,40.74
2022-08-24T03:18:35.055Z,28.99
2022-08-24T03:19:58.486Z,27.34
2022-08-24T03:21:19.738Z,41.18
2022-08-24T03:22:41.189Z,32.06
2022-08-24T03:24:02.866Z,31.72
2022-08-24T03:25:24.316Z,29.94
2022-08-24T03:26:48.988Z,36.62
2022-08-24T03:28:11.233Z,34.17
2022-08-24T03:29:33.808Z,34.78
2022-08-24T03:30:55.488Z,33.98
2022-08-24T03:32:18.454Z,30.65
2022-08-24T03:33:40.098Z,32.31
2022-08-24T03:35:10.174Z,29.59
2022-08-24T03:37:57.242Z,40.14
2022-08-24T03:39:18.674Z,30.49
2022-08-24T03:40:40.837Z,38.41
2022-08-24T03:42:02.571Z,34.23
2022-08-24T03:43:26.044Z,34.70
2022-08-24T03:44:47.237Z,32.62
2022-08-24T03:46:09.833Z,29.05
2022-08-24T03:47:31.175Z,32.27
2022-08-24T03:48:53.121Z,32.60
2022-08-24T03:50:16.671Z,28.22
2022-08-24T03:51:38.974Z,31.99
2022-08-24T03:53:02.117Z,27.46
2022-08-24T03:54:23.579Z,35.92
2022-08-24T03:55:45.950Z,33.39
2022-08-24T03:58:22.416Z,39.86
2022-08-24T03:59:46.370Z,35.47
2022-08-24T04:01:08.273Z,28.41
2022-08-24T04:02:32.886Z,32.81
2022-08-24T04:03:54.309Z,31.93
2022-08-24T04:06:29.156Z,30.71
2022-08-24T04:07:52.845Z,38.14
2022-08-24T04:09:15.825Z,37.86
2022-08-24T04:11:52.013Z,38.89
2022-08-24T04:13:14.755Z,36.93
2022-08-24T04:14:36.332Z,38.55
2022-08-24T04:15:58.741Z,38.91
2022-08-24T04:17:20.464Z,42.64
2022-08-24T04:18:43.075Z,37.46
2022-08-24T04:20:07.100Z,32.97
2022-08-24T04:21:30.681Z,54.98
2022-08-24T04:23:00.371Z,43.27
2022-08-24T04:24:24.497Z,37.45
2022-08-24T04:27:16.071Z,35.11
2022-08-24T04:28:39.936Z,37.62
2022-08-24T04:30:01.450Z,33.92
2022-08-24T04:31:32.528Z,29.24
2022-08-24T04:33:00.812Z,33.92
2022-08-24T04:34:29.558Z,33.48
2022-08-24T04:36:00.751Z,38.01
2022-08-24T04:37:27.058Z,41.44
2022-08-24T04:38:45.327Z,36.13
2022-08-24T04:40:09.208Z,35.58
2022-08-24T04:41:36.628Z,42.00
2022-08-24T04:42:58.274Z,41.57
2022-08-24T04:44:28.272Z,43.61
2022-08-24T04:45:51.723Z,46.46
2022-08-24T04:47:13.237Z,44.96
2022-08-24T04:48:50.943Z,39.95
2022-08-24T04:50:14.305Z,38.07
2022-08-24T04:51:37.255Z,45.69
2022-08-24T04:53:05.932Z,40.51
2022-08-24T04:54:27.370Z,42.61
2022-08-24T04:55:49.058Z,40.18
2022-08-24T04:57:13.457Z,41.62
2022-08-24T04:58:34.202Z,49.78
2022-08-24T04:59:56.858Z,42.98
2022-08-24T05:01:20.849Z,41.54
2022-08-24T05:02:45.185Z,42.04
2022-08-24T05:04:07.100Z,41.51
2022-08-24T05:05:28.765Z,44.47
2022-08-24T05:06:53.216Z,48.02
2022-08-24T05:08:14.576Z,41.96
2022-08-24T05:09:36.392Z,46.50
2022-08-24T05:10:58.233Z,40.33
2022-08-24T05:12:21.480Z,37.93
2022-08-24T05:13:43.553Z,40.53
2022-08-24T05:15:10.418Z,39.92
2022-08-24T05:16:34.911Z,41.22
2022-08-24T05:17:56.985Z,34.91
2022-08-24T05:19:26.230Z,44.83
2022-08-24T05:20:52.688Z,42.22
2022-08-24T05:22:16.895Z,40.89
2022-08-24T05:25:19.054Z,40.17
2022-08-24T05:27:54.151Z,39.87
2022-08-24T05:29:16.373Z,50.40
2022-08-24T05:32:04.760Z,40.94
2022-08-24T05:33:26.784Z,44.51
2022-08-24T05:34:50.639Z,82.68
2022-08-24T05:36:27.070Z,45.42
2022-08-24T05:37:48.572Z,43.38
2022-08-24T05:39:11.840Z,45.13
2022-08-24T05:40:35.982Z,40.44
2022-08-24T05:41:58.670Z,46.71
2022-08-24T05:44:41.590Z,52.54
2022-08-24T05:46:03.351Z,44.68
2022-08-24T05:47:26.183Z,40.00
2022-08-24T05:50:12.815Z,42.03
2022-08-24T05:51:34.759Z,42.82
2022-08-24T05:52:56.171Z,38.26
2022-08-24T06:06:01.352Z,34.98
2022-08-24T06:07:24.457Z,41.28
2022-08-24T06:10:20.469Z,38.01
2022-08-24T06:11:35.573Z,43.22
2022-08-24T06:12:57.449Z,42.06
2022-08-24T06:14:19.682Z,41.30
2022-08-24T06:15:42.082Z,39.22
2022-08-24T06:17:05.833Z,49.91
2022-08-24T06:18:27.593Z,40.13
2022-08-24T06:19:49.964Z,37.68
2022-08-24T06:21:13.482Z,43.80
2022-08-24T06:24:26.650Z,45.23
2022-08-24T06:25:49.872Z,34.81
2022-08-24T06:27:13.666Z,43.29
2022-08-24T06:28:35.098Z,43.23
2022-08-24T06:31:17.464Z,36.43
2022-08-24T06:32:40.617Z,44.87
2022-08-24T06:34:02.087Z,46.51
2022-08-24T06:35:26.838Z,49.89
2022-08-24T06:36:49.977Z,52.51
2022-08-24T06:38:12.971Z,63.68
2022-08-24T06:39:34.891Z,50.54
2022-08-24T06:40:57.716Z,48.47
2022-08-24T06:42:19.930Z,50.50
2022-08-24T06:43:43.520Z,50.17
2022-08-24T06:45:05.192Z,42.46
2022-08-24T06:46:32.891Z,43.21
2022-08-24T06:47:53.639Z,37.44
2022-08-24T06:49:14.784Z,43.46
2022-08-24T06:50:36.968Z,41.33
2022-08-24T06:52:00.503Z,43.63
2022-08-24T06:53:24.190Z,44.79
2022-08-24T06:56:34.997Z,39.14
2022-08-24T06:57:58.734Z,39.27
2022-08-24T06:59:22.292Z,41.83
2022-08-24T07:00:44.452Z,46.29
2022-08-24T07:03:30.645Z,37.61
2022-08-24T07:04:52.465Z,42.84
2022-08-24T07:06:16.657Z,39.84
2022-08-24T07:09:20.226Z,41.49
2022-08-24T07:10:41.907Z,39.87
2022-08-24T07:12:06.085Z,43.99
2022-08-24T07:13:29.292Z,38.40
2022-08-24T07:14:53.376Z,44.86
2022-08-24T07:16:20.584Z,40.59
2022-08-24T07:17:43.773Z,35.53
2022-08-24T07:19:06.682Z,46.33
2022-08-24T07:20:32.614Z,40.11
2022-08-24T07:22:05.440Z,40.16
2022-08-24T07:26:56.814Z,34.68
2022-08-24T07:28:19.052Z,40.09
2022-08-24T07:30:00.075Z,43.71
2022-08-24T07:31:19.786Z,36.15
2022-08-24T07:32:44.460Z,35.97
2022-08-24T07:34:11.824Z,36.88
2022-08-24T07:35:33.557Z,42.88
2022-08-24T07:36:57.292Z,42.80
2022-08-24T07:38:25.897Z,28.85
2022-08-24T07:40:11.135Z,35.18
2022-08-24T07:42:02.539Z,37.84
2022-08-24T07:43:14.063Z,34.83
2022-08-24T07:44:39.330Z,39.09
2022-08-24T07:46:20.698Z,40.48
2022-08-24T07:49:39.597Z,34.16
2022-08-24T08:03:17.007Z,32.29
2022-08-24T08:17:15.705Z,40.97
2022-08-24T08:30:17.941Z,31.78
2022-08-24T08:45:21.876Z,28.61
2022-08-24T09:01:32.775Z,35.29
2022-08-24T09:05:19.033Z,39.89
2022-08-24T09:07:04.474Z,28.35
2022-08-24T09:08:56.464Z,25.63
2022-08-24T09:10:53.450Z,30.87
2022-08-24T09:12:31.640Z,30.27
2022-08-24T09:14:28.613Z,30.46
2022-08-24T09:16:17.912Z,32.49
2022-08-24T09:19:42.981Z,33.26
2022-08-24T09:21:11.384Z,30.67
2022-08-24T09:24:07.102Z,29.28
2022-08-24T09:25:39.777Z,41.28
2022-08-24T09:27:08.002Z,27.09
2022-08-24T09:28:46.788Z,29.40
2022-08-24T09:32:17.734Z,24.64
2022-08-24T09:34:01.622Z,23.71
2022-08-24T09:35:49.269Z,25.48
2022-08-24T09:37:32.652Z,31.55
2022-08-24T09:39:15.902Z,30.45
2022-08-24T09:41:13.586Z,29.18
2022-08-24T09:43:10.744Z,26.31
2022-08-24T09:47:30.668Z,24.66
2022-08-24T09:50:29.664Z,27.80
2022-08-24T09:52:00.538Z,23.42
2022-08-24T09:53:55.824Z,20.35
2022-08-24T09:57:44.177Z,18.87
2022-08-24T09:59:09.804Z,19.06
2022-08-24T10:00:54.560Z,20.04
2022-08-24T10:02:49.432Z,17.84
2022-08-24T10:18:19.882Z,25.96
2022-08-24T10:24:14.100Z,24.04
2022-08-24T10:26:16.058Z,18.22
2022-08-24T10:28:00.460Z,20.00
2022-08-24T10:29:54.555Z,17.88
2022-08-24T10:31:41.101Z,14.19
2022-08-24T10:33:31.472Z,13.95
2022-08-24T10:35:17.830Z,15.89
2022-08-24T10:37:33.654Z,13.47
2022-08-24T10:39:23.393Z,13.37
2022-08-24T10:41:08.401Z,14.59
2022-08-24T10:42:39.149Z,15.41
2022-08-24T10:44:14.635Z,17.23
2022-08-24T10:47:41.972Z,12.14
2022-08-24T11:02:50.779Z,13.94
2022-08-24T11:05:51.178Z,16.19
2022-08-24T11:08:44.210Z,12.97
2022-08-24T11:10:10.152Z,13.29
2022-08-24T11:13:27.279Z,13.28
2022-08-24T11:16:39.819Z,10.30
2022-08-24T11:18:04.410Z,11.19
2022-08-24T11:19:44.337Z,10.09
2022-08-24T11:21:12.378Z,9.71
2022-08-24T11:24:48.016Z,13.96
2022-08-24T11:26:14.150Z,13.13
2022-08-24T11:27:39.586Z,9.21
2022-08-24T11:29:04.636Z,8.48
2022-08-24T11:30:30.084Z,14.67
2022-08-24T11:31:56.413Z,10.68
2022-08-24T11:33:28.536Z,12.17
2022-08-24T11:34:54.065Z,9.18
2022-08-24T11:36:23.332Z,11.12
2022-08-24T11:39:43.550Z,15.51
2022-08-24T11:45:45.679Z,13.45
2022-08-24T11:48:48.225Z,9.97
2022-08-24T11:50:24.646Z,11.59
2022-08-24T11:52:03.860Z,8.32
2022-08-24T11:56:45.428Z,10.91
2022-08-24T11:58:26.213Z,10.85
2022-08-24T12:01:49.677Z,8.82
2022-08-24T12:04:48.903Z,10.63
2022-08-24T12:06:32.579Z,11.59
2022-08-24T12:08:19.157Z,10.77
2022-08-24T12:11:28.789Z,8.47
2022-08-24T12:13:03.827Z,10.64
2022-08-24T12:16:04.115Z,10.09
2022-08-24T12:19:21.279Z,12.14
2022-08-24T12:20:48.095Z,9.94
2022-08-24T12:22:08.571Z,12.20
2022-08-24T12:23:40.765Z,8.37
2022-08-24T12:25:05.610Z,8.75
2022-08-24T12:26:45.598Z,13.84
2022-08-24T12:28:09.849Z,10.66
2022-08-24T12:31:02.643Z,8.56
2022-08-24T12:32:29.120Z,10.45
2022-08-24T12:33:54.067Z,9.22
2022-08-24T12:35:38.409Z,13.55
2022-08-24T12:37:16.557Z,13.17
2022-08-24T12:38:40.888Z,11.68
2022-08-24T12:40:30.716Z,10.86
2022-08-24T12:42:19.505Z,9.78
2022-08-24T12:44:06.190Z,9.82
2022-08-24T12:45:29.573Z,9.29
2022-08-24T12:46:55.607Z,8.84
2022-08-24T12:48:37.376Z,8.44
2022-08-24T12:51:53.486Z,10.03
2022-08-24T12:53:45.547Z,9.72
2022-08-24T12:55:29.272Z,9.53
2022-08-24T12:57:14.420Z,11.08
2022-08-24T12:58:54.119Z,12.86
2022-08-24T13:00:18.638Z,17.37
2022-08-24T13:03:39.432Z,12.58
2022-08-24T13:06:27.218Z,13.16
2022-08-24T13:08:06.298Z,10.77
2022-08-24T13:09:33.985Z,12.16
2022-08-24T13:11:16.785Z,15.01
2022-08-24T13:12:43.547Z,15.04
2022-08-24T13:14:16.940Z,11.59
2022-08-24T13:17:02.042Z,16.82
2022-08-24T13:18:31.064Z,11.33
2022-08-24T13:23:18.221Z,12.61
2022-08-24T13:26:24.226Z,10.15
2022-08-24T13:27:47.792Z,13.78
2022-08-24T13:29:09.667Z,11.87
2022-08-24T13:30:35.672Z,15.06
2022-08-24T13:31:59.930Z,11.21
2022-08-24T13:34:58.630Z,12.94
2022-08-24T13:36:42.859Z,17.76
2022-08-24T13:38:33.635Z,16.64
2022-08-24T13:40:15.466Z,18.71
2022-08-24T13:43:18.952Z,12.58
2022-08-24T13:45:00.104Z,13.07
2022-08-24T13:46:55.547Z,15.88
2022-08-24T13:50:13.274Z,15.39
2022-08-24T13:53:19.642Z,19.76
2022-08-24T13:54:47.382Z,11.97
2022-08-24T13:56:35.101Z,21.34
2022-08-24T13:58:22.448Z,19.06
2022-08-24T14:01:25.485Z,14.49
2022-08-24T14:04:27.369Z,19.28
2022-08-24T14:05:57.329Z,15.50
2022-08-24T14:07:28.157Z,19.83
2022-08-24T14:09:26.913Z,21.22
2022-08-24T14:12:32.393Z,16.63
2022-08-24T14:14:12.064Z,27.22
2022-08-24T14:15:52.837Z,26.50
2022-08-24T14:17:19.644Z,24.38
2022-08-24T14:20:23.088Z,20.56
2022-08-24T14:22:12.591Z,20.00
2022-08-24T14:25:24.619Z,22.16
2022-08-24T14:26:52.896Z,30.16
2022-08-24T14:28:36.635Z,30.55
2022-08-24T14:30:22.460Z,31.78
2022-08-24T14:32:11.601Z,33.73
2022-08-24T14:33:28.365Z,26.83
2022-08-24T14:36:42.974Z,45.14
2022-08-24T14:38:12.484Z,34.29
2022-08-24T14:39:42.478Z,29.29
2022-08-24T14:41:26.887Z,31.24
2022-08-24T14:42:58.967Z,28.83
2022-08-24T14:44:45.132Z,31.87
2022-08-24T14:46:29.272Z,30.83
2022-08-24T14:48:13.872Z,34.21
2022-08-24T14:50:13.116Z,36.69
2022-08-24T14:51:57.937Z,39.79
2022-08-24T14:53:56.511Z,34.28
2022-08-24T14:55:38.052Z,36.91
2022-08-24T14:57:39.131Z,46.29
2022-08-24T15:00:45.947Z,33.69
2022-08-24T15:02:35.782Z,38.38
2022-08-24T15:04:16.105Z,30.59
2022-08-24T15:05:42.916Z,34.68
2022-08-24T15:07:26.610Z,34.17
2022-08-24T15:08:51.561Z,34.64
2022-08-24T15:10:14.975Z,29.31
2022-08-24T15:11:37.541Z,26.69
2022-08-24T15:13:03.895Z,28.01
2022-08-24T15:15:52.880Z,32.14
2022-08-24T15:17:16.725Z,24.29
2022-08-24T15:19:10.149Z,26.63
2022-08-24T15:20:39.218Z,21.23
2022-08-24T15:22:32.584Z,24.83
2022-08-24T15:24:30.540Z,28.26
2022-08-24T15:25:57.657Z,23.68
2022-08-24T15:27:29.771Z,21.39
2022-08-24T15:28:56.575Z,28.46
2022-08-24T15:30:26.118Z,21.12
2022-08-24T15:31:57.630Z,26.15
2022-08-24T15:33:21.861Z,16.97
2022-08-24T15:36:13.674Z,29.53
2022-08-24T15:37:37.732Z,21.31
2022-08-24T15:40:28.928Z,21.35
2022-08-24T15:41:50.337Z,13.86
2022-08-24T15:43:14.198Z,19.68
2022-08-24T15:44:37.029Z,19.65
2022-08-24T15:45:58.896Z,17.16
2022-08-24T15:47:30.875Z,16.27
2022-08-24T15:50:35.611Z,21.87
2022-08-24T15:52:07.442Z,11.92
2022-08-24T15:53:31.757Z,14.48
2022-08-24T15:54:59.348Z,15.95
2022-08-24T15:56:29.654Z,17.30
2022-08-24T15:57:54.083Z,13.63
2022-08-24T15:59:28.546Z,13.73
2022-08-24T16:00:58.070Z,12.87
2022-08-24T16:02:26.434Z,16.98
2022-08-24T16:03:50.568Z,17.04
2022-08-24T16:05:33.508Z,16.51
2022-08-24T16:06:55.022Z,16.86
2022-08-24T16:08:16.197Z,22.79
2022-08-24T16:09:37.521Z,16.89
2022-08-24T16:15:16.466Z,11.79
2022-08-24T16:16:41.579Z,12.67
2022-08-24T16:18:04.034Z,16.53
2022-08-24T16:19:27.725Z,16.47
2022-08-24T16:20:51.162Z,14.33
2022-08-24T16:22:12.684Z,16.59
2022-08-24T16:23:35.715Z,15.01
2022-08-24T16:25:19.114Z,24.44
2022-08-24T16:26:50.458Z,15.57
2022-08-24T16:28:25.248Z,17.24
2022-08-24T16:29:50.359Z,24.41
2022-08-24T16:31:17.299Z,18.73
2022-08-24T16:32:49.644Z,14.61
2022-08-24T16:35:36.042Z,17.82
2022-08-24T16:36:58.211Z,19.37
2022-08-24T16:38:19.783Z,13.99
2022-08-24T16:39:44.052Z,14.09
2022-08-24T16:41:08.813Z,23.01
2022-08-24T16:42:30.391Z,16.46
2022-08-24T16:45:10.235Z,23.16
2022-08-24T16:46:33.318Z,15.91
2022-08-24T16:47:54.993Z,20.26
2022-08-24T16:49:16.426Z,19.43
2022-08-24T16:50:37.922Z,16.65
2022-08-24T16:51:59.402Z,18.86
2022-08-24T16:53:20.775Z,14.22
2022-08-24T16:54:42.134Z,14.62
2022-08-24T16:56:04.038Z,16.49
2022-08-24T16:57:27.983Z,27.43
2022-08-24T16:58:49.607Z,20.88
2022-08-24T17:00:14.255Z,16.29
2022-08-24T17:01:37.282Z,22.11
2022-08-24T17:03:00.654Z,19.59
2022-08-24T17:04:22.180Z,19.54
2022-08-24T17:05:44.211Z,22.38
2022-08-24T17:07:08.207Z,16.56
2022-08-24T17:08:30.648Z,21.60
2022-08-24T17:09:51.771Z,20.44
2022-08-24T17:11:14.421Z,15.36
2022-08-24T17:12:36.428Z,18.24
2022-08-24T17:13:58.414Z,18.03
2022-08-24T17:15:20.068Z,21.08
2022-08-24T17:16:42.090Z,20.60
2022-08-24T17:18:06.080Z,18.63
2022-08-24T17:19:27.806Z,17.24
2022-08-24T17:20:50.553Z,17.33
2022-08-24T17:22:16.037Z,17.97
2022-08-24T17:23:35.065Z,17.20
2022-08-24T17:24:56.269Z,17.41
2022-08-24T17:26:20.582Z,15.52
2022-08-24T17:27:42.416Z,24.61
2022-08-24T17:29:07.723Z,18.93
2022-08-24T17:30:31.823Z,13.07
2022-08-24T17:31:54.026Z,19.09
2022-08-24T17:33:15.430Z,24.11
2022-08-24T17:34:39.049Z,22.56
2022-08-24T17:36:00.750Z,21.17
2022-08-24T17:37:23.154Z,20.39
2022-08-24T17:38:45.868Z,19.98
2022-08-24T17:40:11.771Z,19.32
2022-08-24T17:41:33.709Z,20.59
2022-08-24T17:44:06.787Z,18.92
2022-08-24T17:46:50.118Z,25.46
2022-08-24T17:48:14.340Z,19.73
2022-08-24T17:49:35.493Z,17.43
2022-08-24T17:50:57.441Z,21.10
2022-08-24T17:52:19.336Z,24.98
2022-08-24T17:53:40.988Z,26.10
2022-08-24T17:55:05.418Z,18.36
2022-08-24T17:56:29.798Z,17.15
2022-08-24T17:57:51.719Z,18.15
2022-08-24T17:59:13.439Z,22.78
2022-08-24T18:00:35.429Z,17.91
2022-08-24T18:01:59.011Z,21.71
2022-08-24T18:03:22.632Z,19.15
2022-08-24T18:04:44.645Z,16.08
2022-08-24T18:06:06.749Z,17.10
2022-08-24T18:07:49.517Z,21.44
2022-08-24T18:08:52.030Z,19.19
2022-08-24T18:11:34.518Z,18.07
2022-08-24T18:12:59.212Z,24.18
2022-08-24T18:14:20.622Z,16.68
2022-08-24T18:15:41.996Z,23.43
2022-08-24T18:18:25.457Z,18.58
2022-08-24T18:19:47.153Z,14.50
2022-08-24T18:21:08.877Z,22.24
2022-08-24T18:22:30.504Z,16.60
2022-08-24T18:23:51.817Z,19.06
2022-08-24T18:26:39.396Z,21.56
2022-08-24T18:28:05.187Z,19.88
2022-08-24T18:29:26.472Z,15.92
2022-08-24T18:30:49.880Z,14.76
2022-08-24T18:33:33.795Z,16.44
2022-08-24T18:34:58.627Z,19.73
2022-08-24T18:36:20.344Z,17.46
2022-08-24T18:37:42.805Z,17.14
2022-08-24T18:39:07.454Z,21.21
2022-08-24T18:40:33.158Z,15.33
2022-08-24T18:41:53.974Z,20.09
2022-08-24T18:43:16.475Z,21.40
2022-08-24T18:44:40.107Z,17.42
2022-08-24T18:46:02.455Z,20.97
2022-08-24T18:47:24.282Z,16.12
2022-08-24T18:48:45.850Z,13.33
2022-08-24T18:50:08.239Z,17.00
2022-08-24T18:51:34.402Z,17.72
2022-08-24T18:52:57.277Z,17.26
2022-08-24T18:55:43.901Z,19.07
2022-08-24T18:57:05.150Z,19.71
2022-08-24T18:58:27.758Z,15.29
2022-08-24T18:59:50.176Z,15.10
2022-08-24T19:01:11.530Z,19.17
2022-08-24T19:03:51.500Z,19.05
2022-08-24T19:05:21.806Z,19.52
2022-08-24T19:06:43.652Z,17.58
2022-08-24T19:08:06.580Z,20.86
2022-08-24T19:09:34.135Z,17.83
2022-08-24T19:12:04.869Z,18.05
2022-08-24T19:13:27.557Z,17.47
2022-08-24T19:14:49.253Z,21.64
2022-08-24T19:16:13.377Z,16.46
2022-08-24T19:17:34.526Z,19.73
2022-08-24T19:18:56.093Z,19.56
2022-08-24T19:20:18.455Z,13.93
2022-08-24T19:21:40.177Z,19.96
2022-08-24T19:24:28.360Z,18.05
2022-08-24T19:25:49.837Z,25.41
2022-08-24T19:27:15.005Z,18.57
2022-08-24T19:28:37.454Z,15.13
2022-08-24T19:29:58.909Z,16.44
2022-08-24T19:31:21.569Z,15.72
2022-08-24T19:32:43.541Z,18.74
2022-08-24T19:34:05.247Z,23.90
2022-08-24T19:35:26.804Z,14.63
2022-08-24T19:36:48.294Z,17.38
2022-08-24T19:38:11.743Z,23.74
2022-08-24T19:39:33.100Z,21.87
2022-08-24T19:40:54.904Z,15.76
2022-08-24T19:42:18.393Z,19.06
2022-08-24T19:43:39.936Z,18.52
2022-08-24T19:45:01.405Z,17.47
2022-08-24T19:46:23.773Z,19.03
2022-08-24T19:47:48.267Z,12.62
2022-08-24T19:49:10.806Z,17.74
2022-08-24T19:50:35.894Z,22.46
2022-08-24T19:51:56.921Z,20.51
2022-08-24T19:53:18.420Z,15.43
2022-08-24T19:55:54.466Z,19.82
2022-08-24T19:57:42.928Z,19.18
2022-08-24T19:59:10.229Z,18.54
2022-08-24T20:00:37.233Z,17.27
2022-08-24T20:01:58.857Z,15.09
2022-08-24T20:03:21.764Z,15.98
2022-08-24T20:06:04.563Z,12.24
2022-08-24T20:07:26.070Z,18.01
2022-08-24T20:08:48.501Z,12.93
2022-08-24T20:10:12.967Z,15.54
2022-08-24T20:11:34.668Z,19.39
2022-08-24T20:12:56.088Z,16.00
2022-08-24T20:14:17.456Z,22.13
2022-08-24T20:15:39.051Z,15.11
2022-08-24T20:17:01.318Z,13.63
2022-08-24T20:18:25.991Z,15.40
2022-08-24T20:19:47.468Z,18.53
2022-08-24T20:21:09.716Z,20.53
2022-08-24T20:22:31.485Z,14.94
2022-08-24T20:23:52.985Z,16.94
2022-08-24T20:25:14.818Z,18.16
2022-08-24T20:26:40.589Z,12.58
2022-08-24T20:28:27.676Z,15.24
2022-08-24T20:29:26.696Z,19.19
2022-08-24T20:30:48.222Z,12.78
2022-08-24T20:32:09.898Z,14.87
2022-08-24T20:33:33.197Z,14.48
2022-08-24T20:34:54.904Z,15.24
2022-08-24T20:37:29.515Z,18.50
2022-08-24T20:38:51.464Z,20.05
2022-08-24T20:40:17.721Z,21.41
2022-08-24T20:41:39.358Z,12.06
2022-08-24T20:43:00.557Z,11.71
2022-08-24T20:44:22.518Z,14.28
2022-08-24T20:45:44.086Z,14.28
2022-08-24T20:47:05.669Z,18.42
2022-08-24T20:48:30.742Z,16.69
2022-08-24T20:49:52.719Z,15.06
2022-08-24T20:51:15.147Z,16.87
2022-08-24T20:52:36.586Z,13.40
2022-08-24T20:53:58.520Z,11.48
2022-08-24T20:55:21.330Z,14.23
2022-08-24T20:56:42.759Z,17.39
2022-08-24T20:58:04.021Z,12.04
2022-08-24T20:59:25.561Z,16.57
2022-08-24T21:00:47.783Z,19.77
2022-08-24T21:02:10.508Z,17.03
2022-08-24T21:03:32.962Z,11.18
2022-08-24T21:04:56.109Z,15.77
2022-08-24T21:06:18.524Z,14.79
2022-08-24T21:07:40.287Z,11.72
2022-08-24T21:09:03.181Z,14.18
2022-08-24T21:10:26.789Z,16.11
2022-08-24T21:11:48.696Z,12.47
2022-08-24T21:13:11.835Z,11.69
2022-08-24T21:14:33.243Z,10.05
2022-08-24T21:15:54.829Z,12.07
2022-08-24T21:17:15.880Z,14.42
2022-08-24T21:18:37.939Z,11.04
2022-08-24T21:19:59.589Z,13.85
2022-08-24T21:21:21.007Z,12.39
2022-08-24T21:22:43.905Z,13.08
2022-08-24T21:24:05.431Z,15.00
2022-08-24T21:25:26.812Z,13.72
2022-08-24T21:26:48.270Z,12.03
2022-08-24T21:28:09.856Z,13.77
2022-08-24T21:29:33.169Z,13.03
2022-08-24T21:30:54.796Z,14.02
2022-08-24T21:32:15.807Z,15.61
2022-08-24T21:33:37.089Z,15.06
2022-08-24T21:34:58.607Z,10.36
2022-08-24T21:36:20.758Z,8.87
2022-08-24T21:37:42.095Z,12.73
2022-08-24T21:39:06.462Z,11.17
2022-08-24T21:40:30.370Z,11.32
2022-08-24T21:43:14.833Z,12.29
2022-08-24T21:44:36.678Z,12.04
2022-08-24T21:47:09.150Z,14.12
2022-08-24T21:48:30.549Z,12.28
2022-08-24T21:49:51.984Z,14.69
2022-08-24T21:51:13.681Z,9.77
2022-08-24T21:52:34.801Z,9.64
2022-08-24T21:53:59.529Z,10.04
2022-08-24T21:55:19.358Z,12.02
2022-08-24T21:56:41.156Z,14.54
2022-08-24T21:58:02.729Z,9.72
2022-08-24T21:59:24.048Z,11.77
2022-08-24T22:00:45.524Z,9.89
2022-08-24T22:02:07.153Z,13.36
2022-08-24T22:03:37.382Z,9.99
2022-08-24T22:04:56.060Z,7.68
2022-08-24T22:06:17.746Z,9.03
2022-08-24T22:07:39.265Z,10.66
2022-08-24T22:09:00.946Z,13.53
2022-08-24T22:10:24.517Z,10.10
2022-08-24T22:11:45.748Z,12.41
2022-08-24T22:13:07.671Z,10.20
2022-08-24T22:14:29.278Z,8.52
2022-08-24T22:15:50.934Z,12.06
2022-08-24T22:17:12.141Z,11.86
2022-08-24T22:18:34.824Z,10.46
2022-08-24T22:19:56.387Z,11.54
2022-08-24T22:21:21.277Z,8.57
2022-08-24T22:22:43.477Z,13.43
2022-08-24T22:24:06.238Z,9.58
2022-08-24T22:25:28.593Z,10.22
2022-08-24T22:26:49.852Z,8.88
2022-08-24T22:28:11.214Z,10.21
2022-08-24T22:29:33.612Z,9.51
2022-08-24T22:30:54.940Z,8.87
2022-08-24T22:32:16.252Z,7.42
2022-08-24T22:33:37.704Z,11.12
2022-08-24T22:34:59.073Z,12.49
2022-08-24T22:36:20.778Z,13.22
2022-08-24T22:37:41.875Z,13.10
2022-08-24T22:39:03.688Z,11.17
2022-08-24T22:40:25.339Z,11.13
2022-08-24T22:41:47.667Z,10.36
2022-08-24T22:43:10.621Z,10.67
2022-08-24T22:44:33.987Z,10.47
2022-08-24T22:45:55.548Z,10.09
2022-08-24T22:47:17.083Z,8.21
2022-08-24T22:48:40.114Z,13.69
2022-08-24T22:50:01.783Z,9.65
2022-08-24T22:51:23.484Z,9.37
2022-08-24T22:52:44.715Z,14.43
2022-08-24T22:54:06.108Z,12.68
2022-08-24T22:56:42.013Z,10.14
2022-08-24T22:58:03.929Z,8.93
2022-08-24T22:59:27.968Z,9.81
2022-08-24T23:00:49.759Z,9.86
2022-08-24T23:02:13.178Z,9.83
2022-08-24T23:03:34.289Z,10.75
2022-08-24T23:04:55.802Z,11.71
2022-08-24T23:07:40.493Z,11.69
2022-08-24T23:09:02.633Z,12.03
2022-08-24T23:10:25.618Z,9.36
2022-08-24T23:11:47.209Z,9.50
2022-08-24T23:13:09.702Z,10.42
2022-08-24T23:14:31.152Z,9.37
2022-08-24T23:15:52.631Z,9.61
2022-08-24T23:17:13.778Z,13.28
2022-08-24T23:18:35.456Z,8.58
2022-08-24T23:19:56.981Z,13.13
2022-08-24T23:21:19.136Z,6.16
2022-08-24T23:22:40.462Z,10.48
2022-08-24T23:24:02.215Z,9.93
2022-08-24T23:25:23.461Z,8.78
2022-08-24T23:26:45.227Z,6.02
2022-08-24T23:28:06.292Z,10.51
2022-08-24T23:29:27.802Z,11.19
2022-08-24T23:30:49.253Z,10.43
2022-08-24T23:32:10.434Z,9.76
2022-08-24T23:33:31.812Z,8.03
2022-08-24T23:34:56.155Z,10.81
2022-08-24T23:36:20.122Z,9.38
2022-08-24T23:39:03.874Z,9.97
2022-08-24T23:40:25.504Z,8.79
2022-08-24T23:41:47.417Z,10.54
2022-08-24T23:43:09.064Z,7.95
2022-08-24T23:44:30.208Z,8.16
2022-08-24T23:45:52.467Z,10.32
2022-08-24T23:47:13.932Z,10.81
2022-08-24T23:48:35.469Z,7.81
2022-08-24T23:49:56.927Z,9.09
2022-08-24T23:51:18.517Z,8.64
2022-08-24T23:52:40.349Z,8.43
2022-08-24T23:54:02.765Z,9.59
2022-08-24T23:55:23.945Z,9.94
2022-08-24T23:56:46.537Z,8.89
2022-08-24T23:58:08.016Z,8.29
2022-08-24T23:59:29.666Z,10.78
